createdAt,value
2023-05-05T00:01:02.539Z,101530.34
2023-05-05T00:03:30.826Z,101520.16
2023-05-05T00:05:59.056Z,101529.22
2023-05-05T00:08:28.954Z,101527.75
2023-05-05T00:10:57.689Z,101520.97
2023-05-05T00:13:25.954Z,101524.44
2023-05-05T00:15:54.731Z,101515.97
2023-05-05T00:18:23.279Z,101509.06
2023-05-05T00:20:51.571Z,101509.41
2023-05-05T00:23:20.687Z,101518.34
2023-05-05T00:25:50.163Z,101508.94
2023-05-05T00:28:18.574Z,101512.94
2023-05-05T00:30:46.933Z,101517.16
2023-05-05T00:33:15.277Z,101518.94
2023-05-05T00:35:43.516Z,101517.63
2023-05-05T00:38:11.693Z,101506.66
2023-05-05T00:40:39.916Z,101503.00
2023-05-05T00:43:09.561Z,101508.44
2023-05-05T00:45:39.078Z,101505.78
2023-05-05T00:48:07.735Z,101502.69
2023-05-05T00:50:36.424Z,101506.72
2023-05-05T00:53:06.148Z,101501.44
2023-05-05T00:55:35.575Z,101504.97
2023-05-05T00:58:04.268Z,101499.69
2023-05-05T01:00:35.258Z,101503.84
2023-05-05T01:03:05.481Z,101495.66
2023-05-05T01:05:43.510Z,101496.38
2023-05-05T01:08:28.572Z,101495.47
2023-05-05T01:11:03.955Z,101492.69
2023-05-05T01:13:43.703Z,101495.72
2023-05-05T01:16:19.620Z,101488.59
2023-05-05T01:18:54.300Z,101493.00
2023-05-05T01:21:29.481Z,101484.59
2023-05-05T01:24:49.416Z,101488.59
2023-05-05T01:27:34.056Z,101487.63
2023-05-05T01:30:18.013Z,101485.91
2023-05-05T01:32:51.799Z,101491.13
2023-05-05T01:35:23.795Z,101486.06
2023-05-05T01:38:00.180Z,101488.75
2023-05-05T01:40:34.512Z,101479.28
2023-05-05T01:43:04.722Z,101490.47
2023-05-05T01:45:36.600Z,101492.81
2023-05-05T01:48:09.049Z,101490.78
2023-05-05T01:50:38.470Z,101492.44
2023-05-05T01:53:09.522Z,101494.59
2023-05-05T01:55:39.905Z,101498.28
2023-05-05T01:58:09.142Z,101496.50
2023-05-05T02:00:37.539Z,101500.22
2023-05-05T02:03:08.959Z,101493.59
2023-05-05T02:05:39.498Z,101493.44
2023-05-05T02:08:10.025Z,101491.88
2023-05-05T02:10:40.812Z,101493.06
2023-05-05T02:13:12.427Z,101484.47
2023-05-05T02:15:41.441Z,101488.16
2023-05-05T02:18:13.302Z,101481.13
2023-05-05T02:20:42.268Z,101472.00
2023-05-05T02:23:10.995Z,101478.03
2023-05-05T02:25:42.517Z,101478.66
2023-05-05T02:28:16.473Z,101485.31
2023-05-05T02:30:45.355Z,101484.34
2023-05-05T02:33:21.270Z,101482.00
2023-05-05T02:35:54.397Z,101485.84
2023-05-05T02:38:29.626Z,101480.44
2023-05-05T02:41:04.412Z,101486.31
2023-05-05T02:43:34.027Z,101479.03
2023-05-05T02:46:02.652Z,101492.59
2023-05-05T02:48:33.975Z,101494.53
2023-05-05T02:51:03.505Z,101486.72
2023-05-05T02:53:36.379Z,101488.72
2023-05-05T02:56:11.588Z,101481.44
2023-05-05T02:58:52.922Z,101491.09
2023-05-05T03:01:30.337Z,101483.91
2023-05-05T03:04:10.226Z,101484.22
2023-05-05T03:06:50.012Z,101484.75
2023-05-05T03:09:26.841Z,101491.59
2023-05-05T03:12:02.036Z,101489.03
2023-05-05T03:14:35.982Z,101485.88
2023-05-05T03:17:07.154Z,101485.56
2023-05-05T03:19:39.828Z,101485.69
2023-05-05T03:22:08.437Z,101488.63
2023-05-05T03:24:38.024Z,101481.47
2023-05-05T03:27:10.177Z,101482.72
2023-05-05T03:29:40.797Z,101485.06
2023-05-05T03:32:13.372Z,101489.59
2023-05-05T03:34:44.026Z,101494.25
2023-05-05T03:37:12.296Z,101489.59
2023-05-05T03:39:42.251Z,101495.25
2023-05-05T03:42:11.805Z,101491.88
2023-05-05T03:44:41.488Z,101503.88
2023-05-05T03:47:09.739Z,101495.44
2023-05-05T03:49:40.099Z,101494.41
2023-05-05T03:52:11.133Z,101499.06
2023-05-05T03:54:40.676Z,101494.59
2023-05-05T03:57:08.924Z,101492.81
2023-05-05T03:59:37.108Z,101502.75
2023-05-05T04:02:05.359Z,101502.91
2023-05-05T04:04:33.790Z,101504.00
2023-05-05T04:07:02.025Z,101494.66
2023-05-05T04:09:31.804Z,101495.41
2023-05-05T04:12:00.027Z,101501.50
2023-05-05T04:14:28.952Z,101499.88
2023-05-05T04:16:57.559Z,101500.13
2023-05-05T04:19:26.178Z,101503.34
2023-05-05T04:21:54.595Z,101507.41
2023-05-05T04:24:24.758Z,101509.25
2023-05-05T04:26:56.087Z,101506.78
2023-05-05T04:29:24.515Z,101508.56
2023-05-05T04:31:53.917Z,101503.81
2023-05-05T04:34:22.370Z,101499.94
2023-05-05T04:36:51.967Z,101505.06
2023-05-05T04:39:21.569Z,101505.84
2023-05-05T04:41:50.786Z,101508.44
2023-05-05T04:44:20.720Z,101515.88
2023-05-05T04:46:48.963Z,101518.19
2023-05-05T04:49:17.673Z,101521.38
2023-05-05T04:51:46.589Z,101520.00
2023-05-05T04:54:15.033Z,101526.41
2023-05-05T04:56:45.207Z,101530.16
2023-05-05T04:59:13.470Z,101525.66
2023-05-05T05:01:43.288Z,101530.00
2023-05-05T05:04:11.587Z,101542.47
2023-05-05T05:06:40.080Z,101542.34
2023-05-05T05:09:08.373Z,101534.47
2023-05-05T05:11:36.511Z,101542.53
2023-05-05T05:14:04.671Z,101545.19
2023-05-05T05:16:33.044Z,101546.78
2023-05-05T05:19:02.907Z,101547.78
2023-05-05T05:21:32.904Z,101550.03
2023-05-05T05:24:01.615Z,101555.38
2023-05-05T05:26:31.050Z,101559.13
2023-05-05T05:28:59.280Z,101556.53
2023-05-05T05:31:27.584Z,101558.41
2023-05-05T05:33:56.561Z,101564.66
2023-05-05T05:36:27.325Z,101561.41
2023-05-05T05:38:56.474Z,101564.50
2023-05-05T05:41:24.957Z,101564.00
2023-05-05T05:43:53.495Z,101568.47
2023-05-05T05:46:21.826Z,101565.22
2023-05-05T05:48:50.212Z,101565.72
2023-05-05T05:51:19.094Z,101568.63
2023-05-05T05:53:51.877Z,101579.47
2023-05-05T05:56:21.511Z,101582.06
2023-05-05T05:58:49.795Z,101577.50
2023-05-05T06:01:18.672Z,101575.47
2023-05-05T06:03:47.724Z,101574.66
2023-05-05T06:06:16.394Z,101584.53
2023-05-05T06:08:46.030Z,101579.91
2023-05-05T06:11:15.992Z,101578.44
2023-05-05T06:13:44.262Z,101592.41
2023-05-05T06:16:12.677Z,101590.97
2023-05-05T06:18:43.148Z,101592.81
2023-05-05T06:21:12.186Z,101586.56
2023-05-05T06:23:40.757Z,101603.22
2023-05-05T06:26:09.157Z,101590.94
2023-05-05T06:28:39.308Z,101595.94
2023-05-05T06:31:07.796Z,101590.56
2023-05-05T06:33:36.072Z,101586.03
2023-05-05T06:36:04.644Z,101587.06
2023-05-05T06:38:32.787Z,101582.16
2023-05-05T06:41:00.967Z,101585.53
2023-05-05T06:43:29.917Z,101585.44
2023-05-05T06:46:02.499Z,101595.28
2023-05-05T06:48:30.712Z,101583.03
2023-05-05T06:50:58.869Z,101595.13
2023-05-05T06:53:27.382Z,101583.13
2023-05-05T06:55:55.555Z,101587.66
2023-05-05T06:58:23.779Z,101578.41
2023-05-05T07:00:54.133Z,101575.59
2023-05-05T07:03:24.006Z,101577.25
2023-05-05T07:05:53.831Z,101584.31
2023-05-05T07:08:24.358Z,101580.88
2023-05-05T07:10:52.970Z,101585.78
2023-05-05T07:13:22.226Z,101576.56
2023-05-05T07:15:50.464Z,101577.16
2023-05-05T07:18:20.361Z,101578.38
2023-05-05T07:20:49.983Z,101570.25
2023-05-05T07:23:18.316Z,101573.91
2023-05-05T07:25:46.709Z,101578.66
2023-05-05T07:28:15.467Z,101573.66
2023-05-05T07:30:43.697Z,101568.47
2023-05-05T07:33:12.207Z,101571.97
2023-05-05T07:35:40.439Z,101575.31
2023-05-05T07:38:10.905Z,101573.69
2023-05-05T07:40:39.452Z,101564.28
2023-05-05T07:43:07.622Z,101575.09
2023-05-05T07:45:35.847Z,101571.06
2023-05-05T07:48:05.324Z,101578.28
2023-05-05T07:50:33.599Z,101579.50
2023-05-05T07:53:13.060Z,101578.75
2023-05-05T07:55:44.230Z,101583.91
2023-05-05T07:58:12.787Z,101581.75
2023-05-05T08:00:41.026Z,101584.25
2023-05-05T08:03:11.537Z,101585.41
2023-05-05T08:05:40.688Z,101590.56
2023-05-05T08:08:09.186Z,101590.47
2023-05-05T08:10:37.420Z,101594.19
2023-05-05T08:13:07.377Z,101602.03
2023-05-05T08:15:35.675Z,101598.53
2023-05-05T08:18:04.093Z,101587.97
2023-05-05T08:20:32.590Z,101600.53
2023-05-05T08:23:00.818Z,101605.31
2023-05-05T08:25:29.118Z,101605.69
2023-05-05T08:27:57.550Z,101599.66
2023-05-05T08:30:27.167Z,101600.03
2023-05-05T08:32:55.644Z,101595.56
2023-05-05T08:35:23.877Z,101593.78
2023-05-05T08:37:52.472Z,101587.06
2023-05-05T08:40:22.096Z,101587.25
2023-05-05T08:42:50.564Z,101588.75
2023-05-05T08:45:18.740Z,101584.66
2023-05-05T08:47:48.488Z,101586.28
2023-05-05T08:50:19.078Z,101590.44
2023-05-05T08:52:52.985Z,101575.16
2023-05-05T08:55:25.405Z,101575.03
2023-05-05T08:57:56.993Z,101565.97
2023-05-05T09:00:27.149Z,101573.13
2023-05-05T09:02:57.982Z,101549.09
2023-05-05T09:05:27.093Z,101545.50
2023-05-05T09:07:55.358Z,101548.09
2023-05-05T09:10:23.576Z,101553.03
2023-05-05T09:12:51.995Z,101541.22
2023-05-05T09:15:20.432Z,101537.69
2023-05-05T09:17:48.727Z,101549.34
2023-05-05T09:20:19.512Z,101549.34
2023-05-05T09:22:48.715Z,101543.66
2023-05-05T09:25:18.661Z,101533.91
2023-05-05T09:27:49.500Z,101547.13
2023-05-05T09:30:19.157Z,101548.16
2023-05-05T09:32:49.094Z,101544.16
2023-05-05T09:35:19.524Z,101562.56
2023-05-05T09:37:48.131Z,101557.41
2023-05-05T09:40:19.648Z,101556.94
2023-05-05T09:42:48.461Z,101560.31
2023-05-05T09:45:27.632Z,101563.16
2023-05-05T09:47:59.903Z,101559.66
2023-05-05T09:50:32.575Z,101551.44
2023-05-05T09:53:02.686Z,101562.03
2023-05-05T09:55:32.002Z,101559.50
2023-05-05T09:58:18.755Z,101554.16
2023-05-05T10:00:47.535Z,101553.44
2023-05-05T10:03:16.085Z,101553.53
2023-05-05T10:05:53.172Z,101559.38
2023-05-05T10:08:23.045Z,101552.94
2023-05-05T10:10:53.244Z,101551.38
2023-05-05T10:13:22.771Z,101546.81
2023-05-05T10:15:52.556Z,101536.03
2023-05-05T10:18:23.259Z,101541.88
2023-05-05T10:20:59.071Z,101528.38
2023-05-05T10:23:33.374Z,101532.56
2023-05-05T10:26:04.054Z,101539.41
2023-05-05T10:28:38.237Z,101531.88
2023-05-05T10:31:24.513Z,101522.72
2023-05-05T10:33:55.465Z,101519.94
2023-05-05T10:36:25.740Z,101518.09
2023-05-05T10:38:57.506Z,101522.25
2023-05-05T10:41:26.163Z,101514.19
2023-05-05T10:43:57.081Z,101513.94
2023-05-05T10:46:26.598Z,101502.00
2023-05-05T10:49:00.832Z,101499.66
2023-05-05T10:51:40.494Z,101505.34
2023-05-05T10:54:15.445Z,101499.25
2023-05-05T10:56:44.281Z,101502.72
2023-05-05T10:59:40.810Z,101501.84
2023-05-05T11:02:23.498Z,101498.13
2023-05-05T11:05:08.209Z,101496.75
2023-05-05T11:07:38.445Z,101492.00
2023-05-05T11:10:08.048Z,101502.84
2023-05-05T11:13:18.651Z,101493.88
2023-05-05T11:15:47.058Z,101491.97
2023-05-05T11:18:44.477Z,101486.75
2023-05-05T11:21:17.822Z,101489.22
2023-05-05T11:23:49.608Z,101486.78
2023-05-05T11:26:19.690Z,101482.94
2023-05-05T11:28:59.856Z,101481.13
2023-05-05T11:31:28.780Z,101475.69
2023-05-05T11:34:27.693Z,101474.25
2023-05-05T11:37:02.587Z,101477.88
2023-05-05T11:39:41.544Z,101470.13
2023-05-05T11:42:24.721Z,101463.09
2023-05-05T11:44:53.521Z,101466.63
2023-05-05T11:47:29.884Z,101469.78
2023-05-05T11:49:58.708Z,101468.13
2023-05-05T11:52:30.879Z,101464.22
2023-05-05T11:55:03.810Z,101465.19
2023-05-05T11:57:32.102Z,101455.75
2023-05-05T12:00:02.266Z,101446.13
2023-05-05T12:02:32.861Z,101451.22
2023-05-05T12:05:01.737Z,101446.97
2023-05-05T12:07:31.664Z,101444.94
2023-05-05T12:10:00.941Z,101449.56
2023-05-05T12:12:38.498Z,101451.91
2023-05-05T12:15:09.231Z,101447.88
2023-05-05T12:17:40.769Z,101444.44
2023-05-05T12:20:11.280Z,101445.50
2023-05-05T12:22:40.479Z,101442.25
2023-05-05T12:25:09.868Z,101433.63
2023-05-05T12:27:39.584Z,101433.75
2023-05-05T12:30:16.338Z,101426.38
2023-05-05T12:32:45.014Z,101430.66
2023-05-05T12:35:14.498Z,101420.94
2023-05-05T12:37:43.400Z,101420.41
2023-05-05T12:40:41.940Z,101422.13
2023-05-05T12:43:11.896Z,101413.53
2023-05-05T12:45:40.114Z,101404.28
2023-05-05T12:48:22.411Z,101390.84
2023-05-05T12:50:50.918Z,101384.75
2023-05-05T12:53:22.766Z,101392.09
2023-05-05T12:55:51.378Z,101391.63
2023-05-05T12:58:21.558Z,101402.19
2023-05-05T13:01:10.933Z,101393.22
2023-05-05T13:03:39.101Z,101402.38
2023-05-05T13:06:20.481Z,101406.16
2023-05-05T13:08:48.724Z,101398.00
2023-05-05T13:11:16.938Z,101400.47
2023-05-05T13:13:46.602Z,101408.50
2023-05-05T13:16:14.805Z,101411.50
2023-05-05T13:18:46.402Z,101402.81
2023-05-05T13:21:14.796Z,101390.78
2023-05-05T13:23:43.970Z,101395.69
2023-05-05T13:26:12.317Z,101397.19
2023-05-05T13:28:40.681Z,101385.13
2023-05-05T13:31:10.412Z,101380.13
2023-05-05T13:33:38.744Z,101385.97
2023-05-05T13:36:07.211Z,101379.91
2023-05-05T13:38:36.517Z,101369.63
2023-05-05T13:41:05.094Z,101368.00
2023-05-05T13:43:33.380Z,101370.06
2023-05-05T13:46:16.084Z,101369.41
2023-05-05T13:48:49.077Z,101356.84
2023-05-05T13:51:17.277Z,101353.72
2023-05-05T13:53:45.956Z,101339.41
2023-05-05T13:56:14.828Z,101334.88
2023-05-05T13:58:43.393Z,101330.28
2023-05-05T14:01:11.958Z,101324.16
2023-05-05T14:03:40.506Z,101322.50
2023-05-05T14:06:10.295Z,101321.50
2023-05-05T14:08:38.622Z,101317.75
2023-05-05T14:11:06.889Z,101313.34
2023-05-05T14:13:35.211Z,101311.91
2023-05-05T14:16:03.403Z,101314.81
2023-05-05T14:18:31.600Z,101307.25
2023-05-05T14:20:59.804Z,101308.84
2023-05-05T14:23:29.373Z,101298.25
2023-05-05T14:25:57.657Z,101302.81
2023-05-05T14:28:25.881Z,101311.59
2023-05-05T14:30:54.245Z,101305.09
2023-05-05T14:33:23.161Z,101307.13
2023-05-05T14:35:51.342Z,101294.25
2023-05-05T14:38:19.629Z,101306.28
2023-05-05T14:40:49.245Z,101299.47
2023-05-05T14:43:17.488Z,101296.81
2023-05-05T14:45:45.899Z,101293.78
2023-05-05T14:48:14.112Z,101292.69
2023-05-05T14:50:42.566Z,101294.06
2023-05-05T14:53:10.870Z,101296.34
2023-05-05T14:55:39.515Z,101296.66
2023-05-05T14:58:09.051Z,101292.56
2023-05-05T15:00:37.223Z,101291.25
2023-05-05T15:03:05.578Z,101282.91
2023-05-05T15:05:33.847Z,101275.22
2023-05-05T15:08:02.101Z,101270.13
2023-05-05T15:10:30.411Z,101273.44
2023-05-05T15:12:58.689Z,101271.44
2023-05-05T15:15:28.299Z,101281.50
2023-05-05T15:17:56.537Z,101276.16
2023-05-05T15:20:24.801Z,101277.94
2023-05-05T15:22:53.005Z,101270.88
2023-05-05T15:25:21.470Z,101264.84
2023-05-05T15:27:49.724Z,101268.31
2023-05-05T15:30:18.155Z,101280.06
2023-05-05T15:32:47.895Z,101289.81
2023-05-05T15:35:16.159Z,101278.38
2023-05-05T15:37:44.330Z,101277.75
2023-05-05T15:40:13.061Z,101271.94
2023-05-05T15:42:41.599Z,101273.59
2023-05-05T15:45:12.367Z,101261.59
2023-05-05T15:47:40.816Z,101264.56
2023-05-05T15:50:10.987Z,101269.50
2023-05-05T15:52:39.303Z,101266.47
2023-05-05T15:55:08.987Z,101261.81
2023-05-05T15:57:39.687Z,101271.47
2023-05-05T16:00:09.572Z,101261.28
2023-05-05T16:02:38.761Z,101261.19
2023-05-05T16:05:08.232Z,101261.69
2023-05-05T16:07:38.151Z,101268.13
2023-05-05T16:10:08.183Z,101265.34
2023-05-05T16:12:36.430Z,101251.25
2023-05-05T16:15:05.240Z,101253.94
2023-05-05T16:17:33.499Z,101254.38
2023-05-05T16:20:01.767Z,101249.75
2023-05-05T16:22:30.545Z,101238.94
2023-05-05T16:25:00.062Z,101256.06
2023-05-05T16:27:28.821Z,101256.91
2023-05-05T16:29:59.546Z,101259.69
2023-05-05T16:32:28.015Z,101264.88
2023-05-05T16:34:56.257Z,101275.78
2023-05-05T16:37:24.597Z,101264.53
2023-05-05T16:39:52.728Z,101262.25
2023-05-05T16:42:22.630Z,101274.94
2023-05-05T16:44:50.746Z,101270.94
2023-05-05T16:47:18.869Z,101277.84
2023-05-05T16:49:47.167Z,101279.31
2023-05-05T16:52:15.311Z,101272.25
2023-05-05T16:54:43.555Z,101281.75
2023-05-05T16:57:12.820Z,101276.88
2023-05-05T16:59:42.644Z,101283.44
2023-05-05T17:02:10.872Z,101281.59
2023-05-05T17:04:39.307Z,101282.19
2023-05-05T17:07:07.547Z,101278.28
2023-05-05T17:09:36.500Z,101282.25
2023-05-05T17:12:05.087Z,101279.44
2023-05-05T17:14:33.582Z,101283.34
2023-05-05T17:17:03.249Z,101289.63
2023-05-05T17:19:31.445Z,101283.53
2023-05-05T17:21:59.614Z,101282.75
2023-05-05T17:24:27.823Z,101273.19
2023-05-05T17:26:56.396Z,101275.38
2023-05-05T17:29:24.791Z,101286.06
2023-05-05T17:31:54.059Z,101282.88
2023-05-05T17:34:23.673Z,101285.16
2023-05-05T17:36:51.854Z,101280.38
2023-05-05T17:39:20.025Z,101270.00
2023-05-05T17:41:48.191Z,101280.84
2023-05-05T17:44:16.384Z,101270.59
2023-05-05T17:46:44.670Z,101285.38
2023-05-05T17:49:12.809Z,101286.13
2023-05-05T17:51:42.380Z,101282.81
2023-05-05T17:54:10.546Z,101285.50
2023-05-05T17:56:38.734Z,101284.03
2023-05-05T17:59:07.192Z,101291.00
2023-05-05T18:01:35.711Z,101294.84
2023-05-05T18:04:03.891Z,101295.69
2023-05-05T18:06:32.148Z,101291.66
2023-05-05T18:09:01.658Z,101286.31
2023-05-05T18:11:31.001Z,101289.13
2023-05-05T18:13:59.201Z,101282.44
2023-05-05T18:16:27.425Z,101288.00
2023-05-05T18:18:55.614Z,101291.44
2023-05-05T18:21:23.856Z,101291.84
2023-05-05T18:23:57.242Z,101297.41
2023-05-05T18:26:31.334Z,101300.84
2023-05-05T18:28:59.532Z,101294.22
2023-05-05T18:31:28.482Z,101294.88
2023-05-05T18:33:56.732Z,101306.91
2023-05-05T18:36:24.922Z,101306.47
2023-05-05T18:38:53.065Z,101302.53
2023-05-05T18:41:21.389Z,101309.56
2023-05-05T18:43:50.927Z,101307.13
2023-05-05T18:46:19.297Z,101317.03
2023-05-05T18:48:47.517Z,101321.59
2023-05-05T18:51:15.908Z,101329.72
2023-05-05T18:53:44.158Z,101331.09
2023-05-05T18:56:12.331Z,101340.28
2023-05-05T18:58:40.505Z,101332.56
2023-05-05T19:01:10.181Z,101330.09
2023-05-05T19:03:38.422Z,101333.63
2023-05-05T19:06:07.005Z,101328.69
2023-05-05T19:08:35.184Z,101343.19
2023-05-05T19:11:03.572Z,101336.56
2023-05-05T19:13:31.706Z,101334.75
2023-05-05T19:15:59.977Z,101346.00
2023-05-05T19:18:29.521Z,101340.13
2023-05-05T19:20:57.680Z,101341.91
2023-05-05T19:23:25.991Z,101335.66
2023-05-05T19:25:54.536Z,101346.72
2023-05-05T19:28:22.810Z,101339.22
2023-05-05T19:30:51.066Z,101328.56
2023-05-05T19:33:19.280Z,101345.59
2023-05-05T19:35:48.826Z,101347.50
2023-05-05T19:38:17.319Z,101352.91
2023-05-05T19:40:45.495Z,101353.56
2023-05-05T19:43:13.633Z,101361.28
2023-05-05T19:45:41.977Z,101356.44
2023-05-05T19:48:10.221Z,101367.66
2023-05-05T19:50:38.437Z,101350.72
2023-05-05T19:53:07.925Z,101348.84
2023-05-05T19:55:36.197Z,101351.31
2023-05-05T19:58:04.354Z,101340.66
2023-05-05T20:00:33.205Z,101348.75
2023-05-05T20:03:02.031Z,101345.22
2023-05-05T20:05:30.844Z,101343.13
2023-05-05T20:07:59.016Z,101344.41
2023-05-05T20:10:28.566Z,101349.31
2023-05-05T20:12:56.847Z,101350.94
2023-05-05T20:15:25.330Z,101334.09
2023-05-05T20:17:53.705Z,101335.94
2023-05-05T20:20:23.266Z,101334.47
2023-05-05T20:22:51.431Z,101326.59
2023-05-05T20:25:19.759Z,101342.75
2023-05-05T20:27:49.501Z,101342.00
2023-05-05T20:30:17.762Z,101335.72
2023-05-05T20:32:46.065Z,101330.78
2023-05-05T20:35:14.386Z,101341.22
2023-05-05T20:37:44.962Z,101334.56
2023-05-05T20:40:14.185Z,101334.47
2023-05-05T20:42:42.382Z,101339.41
2023-05-05T20:45:12.594Z,101336.47
2023-05-05T20:47:40.888Z,101328.47
2023-05-05T20:50:10.133Z,101323.63
2023-05-05T20:52:38.854Z,101323.78
2023-05-05T20:55:07.775Z,101312.56
2023-05-05T20:57:36.195Z,101320.69
2023-05-05T21:00:05.418Z,101315.25
2023-05-05T21:02:35.116Z,101317.75
2023-05-05T21:05:03.503Z,101319.72
2023-05-05T21:07:34.132Z,101311.25
2023-05-05T21:10:02.444Z,101313.91
2023-05-05T21:12:31.557Z,101305.16
2023-05-05T21:14:59.811Z,101304.66
2023-05-05T21:17:28.891Z,101304.47
2023-05-05T21:19:58.375Z,101300.38
2023-05-05T21:22:26.615Z,101302.00
2023-05-05T21:24:55.364Z,101292.47
2023-05-05T21:27:24.855Z,101287.00
2023-05-05T21:29:54.075Z,101295.91
2023-05-05T21:32:22.494Z,101306.06
2023-05-05T21:34:50.751Z,101295.91
2023-05-05T21:37:21.641Z,101299.03
2023-05-05T21:39:50.014Z,101300.75
2023-05-05T21:42:18.378Z,101287.06
2023-05-05T21:44:46.638Z,101287.84
2023-05-05T21:47:14.845Z,101271.94
2023-05-05T21:49:43.070Z,101264.25
2023-05-05T21:52:11.267Z,101257.31
2023-05-05T21:54:40.875Z,101261.84
2023-05-05T21:57:09.083Z,101259.97
2023-05-05T21:59:37.415Z,101271.94
2023-05-05T22:02:05.635Z,101274.19
2023-05-05T22:04:33.914Z,101269.06
2023-05-05T22:07:02.095Z,101265.44
2023-05-05T22:09:30.627Z,101260.47
2023-05-05T22:12:00.194Z,101263.75
2023-05-05T22:14:28.379Z,101257.31
2023-05-05T22:16:56.679Z,101258.75
2023-05-05T22:19:25.532Z,101252.16
2023-05-05T22:21:54.221Z,101255.91
2023-05-05T22:24:22.414Z,101270.50
2023-05-05T22:26:50.554Z,101268.63
2023-05-05T22:29:20.065Z,101265.97
2023-05-05T22:31:48.349Z,101267.78
2023-05-05T22:34:18.658Z,101261.00
2023-05-05T22:36:46.903Z,101260.06
2023-05-05T22:39:15.364Z,101258.19
2023-05-05T22:41:43.635Z,101269.59
2023-05-05T22:44:11.915Z,101263.16
2023-05-05T22:46:42.098Z,101263.66
2023-05-05T22:49:10.301Z,101273.78
2023-05-05T22:51:39.190Z,101280.66
2023-05-05T22:54:07.458Z,101286.09
2023-05-05T22:56:35.865Z,101286.09
2023-05-05T22:59:04.117Z,101286.94
2023-05-05T23:01:33.592Z,101283.44
2023-05-05T23:04:03.266Z,101281.13
2023-05-05T23:06:32.206Z,101275.25
2023-05-05T23:09:00.338Z,101289.09
2023-05-05T23:11:28.593Z,101287.47
2023-05-05T23:13:56.746Z,101289.56
2023-05-05T23:16:24.960Z,101295.53
2023-05-05T23:18:53.165Z,101290.03
2023-05-05T23:21:22.748Z,101290.91
2023-05-05T23:23:50.918Z,101283.19
2023-05-05T23:26:19.101Z,101289.56
2023-05-05T23:28:47.294Z,101278.53
2023-05-05T23:31:15.544Z,101274.25
2023-05-05T23:33:43.722Z,101277.72
2023-05-05T23:36:11.906Z,101265.97
2023-05-05T23:38:41.385Z,101259.34
2023-05-05T23:41:09.920Z,101261.50
2023-05-05T23:43:38.126Z,101259.81
2023-05-05T23:46:06.528Z,101259.22
2023-05-05T23:48:34.679Z,101259.22
2023-05-05T23:51:02.866Z,101261.13
2023-05-05T23:53:31.050Z,101260.72
2023-05-05T23:56:00.530Z,101260.19
2023-05-05T23:58:28.665Z,101261.72
